Time;durP1;ratioP1;P1;durP2;ratioP2;P2;SDS_P1;SDS_P2;PMS_P1;PMS_P2;Temp;Humidity;BMP_temperature;BMP_pressure;BME280_temperature;BME280_humidity;BME280_pressure;Samples;Min_cycle;Max_cycle;Signal;HPM_P1;HPM_P2
2020/12/26 00:02:02;;;;;;;26.98;15.88;;;3.60;99.90;;;;;;4945618;29;20067;-79
2020/12/26 00:04:29;;;;;;;33.83;19.58;;;3.60;99.90;;;;;;4939246;29;20100;-79
2020/12/26 00:06:55;;;;;;;34.22;21.20;;;3.50;99.90;;;;;;4940401;29;20048;-79
2020/12/26 00:09:22;;;;;;;33.72;20.42;;;3.60;99.90;;;;;;4939473;29;20075;-79
2020/12/26 00:11:49;;;;;;;33.60;20.35;;;3.60;99.90;;;;;;4940188;29;20079;-77
2020/12/26 00:14:15;;;;;;;29.52;18.33;;;3.70;99.90;;;;;;4944125;29;20056;-79
2020/12/26 00:16:42;;;;;;;29.55;17.73;;;3.70;99.90;;;;;;4943699;29;20469;-79
2020/12/26 00:19:14;;;;;;;27.48;18.52;;;3.60;99.90;;;;;;4943610;29;20124;-80
2020/12/26 00:21:41;;;;;;;26.73;17.52;;;3.60;99.90;;;;;;4943713;29;20051;-79
2020/12/26 00:24:07;;;;;;;27.00;18.00;;;3.60;99.90;;;;;;4944433;29;20075;-80
2020/12/26 00:26:34;;;;;;;27.33;19.13;;;3.70;99.90;;;;;;4942923;28;20044;-80
2020/12/26 00:29:00;;;;;;;33.80;21.98;;;3.60;99.90;;;;;;4944775;29;20048;-80
2020/12/26 00:31:27;;;;;;;34.05;24.83;;;3.70;99.90;;;;;;4943300;29;20055;-80
2020/12/26 00:33:54;;;;;;;41.80;26.45;;;3.70;99.90;;;;;;4944021;29;20120;-79
2020/12/26 00:36:20;;;;;;;42.22;26.67;;;3.70;99.90;;;;;;4944289;29;20078;-80
2020/12/26 00:38:46;;;;;;;41.45;25.55;;;3.70;99.90;;;;;;4944450;29;20075;-80
2020/12/26 00:41:13;;;;;;;32.55;22.30;;;3.60;99.90;;;;;;4945033;29;20099;-80
2020/12/26 00:43:40;;;;;;;24.00;17.75;;;3.70;99.90;;;;;;4944726;29;20130;-80
2020/12/26 00:46:06;;;;;;;27.67;18.35;;;3.70;99.90;;;;;;4945348;29;20101;-80
2020/12/26 00:48:33;;;;;;;24.42;16.52;;;3.70;99.90;;;;;;4943018;29;20111;-78
2020/12/26 00:51:00;;;;;;;29.73;17.63;;;3.70;99.90;;;;;;4941385;29;20063;-78
2020/12/26 00:53:26;;;;;;;27.55;17.15;;;3.70;99.90;;;;;;4943374;29;20051;-79
2020/12/26 00:55:53;;;;;;;26.95;16.75;;;3.60;99.90;;;;;;4943716;29;20079;-79
2020/12/26 00:58:19;;;;;;;24.63;17.17;;;3.70;99.90;;;;;;4942385;29;20468;-79
2020/12/26 01:00:45;;;;;;;27.83;16.92;;;3.70;99.90;;;;;;4940912;29;20091;-78
2020/12/26 01:03:12;;;;;;;28.45;18.73;;;3.70;99.90;;;;;;4939738;29;20564;-77
2020/12/26 01:05:38;;;;;;;31.15;19.52;;;3.70;99.90;;;;;;4941170;29;20087;-79
2020/12/26 01:08:05;;;;;;;25.40;19.23;;;3.70;99.90;;;;;;4942042;29;20218;-79
2020/12/26 01:10:32;;;;;;;33.88;21.67;;;3.70;99.90;;;;;;4941371;29;20504;-79
2020/12/26 01:12:58;;;;;;;29.45;19.65;;;3.70;99.90;;;;;;4938550;29;20564;-78
2020/12/26 01:15:24;;;;;;;25.08;19.33;;;3.70;99.90;;;;;;4939677;29;20449;-78
2020/12/26 01:17:51;;;;;;;31.80;19.63;;;3.70;99.90;;;;;;4939797;29;20130;-79
2020/12/26 01:20:17;;;;;;;32.53;20.88;;;3.70;99.90;;;;;;4940656;29;20139;-79
2020/12/26 01:22:44;;;;;;;28.73;19.75;;;3.60;99.90;;;;;;4938849;29;20252;-78
2020/12/26 01:25:12;;;;;;;31.20;20.83;;;3.70;99.90;;;;;;4938890;29;20421;-79
2020/12/26 01:27:39;;;;;;;30.90;20.38;;;3.70;99.90;;;;;;4939110;29;20083;-79
2020/12/26 01:30:06;;;;;;;27.85;20.23;;;3.70;99.90;;;;;;4940277;29;20515;-79
2020/12/26 01:32:32;;;;;;;28.65;19.02;;;3.70;99.90;;;;;;4941510;29;20083;-80
2020/12/26 01:35:00;;;;;;;38.08;20.83;;;3.70;99.90;;;;;;4945630;29;20083;-79
2020/12/26 01:37:27;;;;;;;27.33;20.38;;;3.60;99.90;;;;;;4944514;29;20226;-80
2020/12/26 01:39:54;;;;;;;30.00;19.83;;;3.70;99.90;;;;;;4943644;29;20059;-80
2020/12/26 01:42:21;;;;;;;31.25;20.95;;;3.60;99.90;;;;;;4940186;29;20167;-79
2020/12/26 01:44:48;;;;;;;31.63;20.17;;;3.60;99.90;;;;;;4941762;29;20505;-78
2020/12/26 01:47:16;;;;;;;36.40;22.23;;;3.60;99.90;;;;;;4932369;29;20128;-77
2020/12/26 01:49:43;;;;;;;33.22;21.35;;;3.60;99.90;;;;;;4938228;29;20470;-78
2020/12/26 01:52:10;;;;;;;34.28;22.20;;;3.60;99.90;;;;;;4938219;29;20572;-79
2020/12/26 01:54:36;;;;;;;35.55;23.73;;;3.50;99.90;;;;;;4939205;29;20107;-78
2020/12/26 01:57:05;;;;;;;33.00;22.40;;;3.50;99.90;;;;;;4939024;29;20086;-77
2020/12/26 01:59:32;;;;;;;34.95;23.20;;;3.50;99.90;;;;;;4937676;29;20528;-78
2020/12/26 02:01:58;;;;;;;31.75;22.25;;;3.50;99.90;;;;;;4938469;29;20138;-79
2020/12/26 02:04:25;;;;;;;32.40;23.48;;;3.50;99.90;;;;;;4938277;29;20083;-79
2020/12/26 02:06:53;;;;;;;35.83;22.98;;;3.50;99.90;;;;;;4940512;29;20044;-79
2020/12/26 02:09:21;;;;;;;36.22;22.27;;;3.50;99.90;;;;;;4943261;29;20134;-80
2020/12/26 02:11:47;;;;;;;34.08;21.00;;;3.50;99.90;;;;;;4942367;29;20083;-79
2020/12/26 02:14:14;;;;;;;39.28;25.23;;;3.40;99.90;;;;;;4943144;29;20052;-79
2020/12/26 02:16:45;;;;;;;38.60;24.77;;;3.40;99.90;;;;;;4943112;29;20055;-79
2020/12/26 02:19:13;;;;;;;42.15;25.98;;;3.30;99.90;;;;;;4941670;29;20052;-80
2020/12/26 02:21:40;;;;;;;34.17;24.88;;;3.30;99.90;;;;;;4942055;29;20488;-81
2020/12/26 02:24:07;;;;;;;39.88;26.02;;;3.40;99.90;;;;;;4942429;29;20536;-80
2020/12/26 02:26:34;;;;;;;47.65;26.00;;;3.30;99.90;;;;;;4942893;29;20083;-79
2020/12/26 02:29:00;;;;;;;39.90;25.70;;;3.20;99.90;;;;;;4943774;29;20087;-80
2020/12/26 02:31:27;;;;;;;35.08;23.75;;;3.30;99.90;;;;;;4944291;29;20051;-81
2020/12/26 02:33:53;;;;;;;33.13;24.30;;;3.30;99.90;;;;;;4943841;29;20127;-79
2020/12/26 02:36:20;;;;;;;36.35;22.92;;;3.30;99.90;;;;;;4942350;29;20118;-80
2020/12/26 02:38:46;;;;;;;35.95;22.83;;;3.30;99.90;;;;;;4943395;29;20139;-80
2020/12/26 02:41:14;;;;;;;37.70;22.85;;;3.40;99.90;;;;;;4943205;29;20111;-81
2020/12/26 02:43:41;;;;;;;39.00;22.75;;;3.40;99.90;;;;;;4943242;29;20127;-81
2020/12/26 02:46:07;;;;;;;31.98;22.80;;;3.40;99.90;;;;;;4941963;29;20083;-80
2020/12/26 02:48:34;;;;;;;38.42;22.73;;;3.40;99.90;;;;;;4998205;23;20078;-80
2020/12/26 02:54:22;;;;;;;35.13;20.95;;;3.40;99.90;;;;;;4976579;28;20033;-78
2020/12/26 02:56:49;;;;;;;39.50;21.05;;;3.30;99.90;;;;;;4976982;28;20194;-79
2020/12/26 02:59:16;;;;;;;33.40;20.95;;;3.40;99.90;;;;;;4976365;28;20321;-78
2020/12/26 03:01:42;;;;;;;35.88;20.80;;;3.40;99.90;;;;;;4987305;28;20066;-80
2020/12/26 03:04:08;;;;;;;29.80;19.90;;;3.50;99.90;;;;;;4984833;28;20089;-79
2020/12/26 03:06:35;;;;;;;28.05;19.52;;;3.50;99.90;;;;;;4979894;28;20090;-79
2020/12/26 03:09:01;;;;;;;33.15;21.75;;;3.50;99.90;;;;;;4980136;28;20424;-79
2020/12/26 03:11:28;;;;;;;30.58;20.83;;;3.50;99.90;;;;;;4980032;28;20392;-79
2020/12/26 03:13:55;;;;;;;32.88;20.75;;;3.50;99.90;;;;;;4979926;28;20094;-79
2020/12/26 03:16:21;;;;;;;31.90;20.33;;;3.50;99.90;;;;;;4980452;28;20093;-78
2020/12/26 03:18:48;;;;;;;28.17;19.55;;;3.50;99.90;;;;;;4977897;28;20082;-79
2020/12/26 03:21:14;;;;;;;30.40;20.67;;;3.60;99.90;;;;;;4977117;28;20050;-78
2020/12/26 03:23:41;;;;;;;28.98;20.30;;;3.60;99.90;;;;;;4978778;28;20074;-78
2020/12/26 03:26:07;;;;;;;33.90;20.50;;;3.60;99.90;;;;;;4978382;28;20086;-78
2020/12/26 03:28:34;;;;;;;32.17;20.35;;;3.60;99.90;;;;;;4978870;28;20129;-78
2020/12/26 03:31:01;;;;;;;30.40;20.10;;;3.60;99.90;;;;;;4978913;28;20047;-79
2020/12/26 03:33:27;;;;;;;30.08;20.67;;;3.70;99.90;;;;;;4977765;28;20115;-78
2020/12/26 03:35:54;;;;;;;29.10;20.50;;;3.70;99.90;;;;;;4977347;28;20047;-79
2020/12/26 03:38:20;;;;;;;31.45;20.48;;;3.70;99.90;;;;;;4979312;28;20097;-79
2020/12/26 03:40:46;;;;;;;30.10;21.63;;;3.70;99.90;;;;;;4978899;28;20515;-80
2020/12/26 03:43:13;;;;;;;29.52;20.65;;;3.80;99.90;;;;;;4979520;28;20138;-81
2020/12/26 03:45:39;;;;;;;27.73;20.33;;;3.70;99.90;;;;;;4980081;28;20082;-81
2020/12/26 03:48:07;;;;;;;31.92;21.30;;;3.80;99.90;;;;;;4983869;28;20125;-81
2020/12/26 03:50:33;;;;;;;33.15;20.92;;;3.80;99.90;;;;;;4983297;28;20557;-81
2020/12/26 03:52:59;;;;;;;32.88;22.05;;;3.80;99.90;;;;;;4982393;28;20081;-79
2020/12/26 03:55:26;;;;;;;31.70;21.98;;;3.80;99.90;;;;;;4981999;28;20070;-80
2020/12/26 03:57:52;;;;;;;36.50;22.98;;;3.80;99.90;;;;;;4984523;28;20089;-81
2020/12/26 04:00:19;;;;;;;37.67;23.50;;;3.80;99.90;;;;;;4983695;28;20523;-80
2020/12/26 04:02:45;;;;;;;33.40;23.23;;;3.80;99.90;;;;;;4983005;28;20055;-79
2020/12/26 04:05:15;;;;;;;34.58;21.90;;;3.80;99.90;;;;;;4983442;28;20098;-80
2020/12/26 04:07:42;;;;;;;40.17;22.25;;;3.80;99.90;;;;;;4983189;28;20051;-81
2020/12/26 04:10:08;;;;;;;31.23;21.90;;;3.80;99.90;;;;;;4979152;28;20692;-81
2020/12/26 04:12:34;;;;;;;35.35;22.15;;;3.80;99.90;;;;;;4981437;28;20047;-80
2020/12/26 04:15:01;;;;;;;32.08;21.50;;;3.80;99.90;;;;;;4963841;28;20102;-80
2020/12/26 04:17:27;;;;;;;30.80;22.02;;;3.80;99.90;;;;;;4962248;28;20055;-80
2020/12/26 04:19:53;;;;;;;35.63;22.88;;;3.70;99.90;;;;;;4962404;29;20134;-80
2020/12/26 04:22:21;;;;;;;32.85;21.50;;;3.80;99.90;;;;;;4961602;29;20549;-80
2020/12/26 04:24:47;;;;;;;31.83;22.90;;;3.80;99.90;;;;;;4961951;28;20082;-80
2020/12/26 04:27:13;;;;;;;33.75;20.85;;;3.80;99.90;;;;;;4963138;28;20089;-80
2020/12/26 04:29:40;;;;;;;32.88;20.02;;;3.80;99.90;;;;;;4963346;29;20083;-80
2020/12/26 04:32:06;;;;;;;38.95;20.63;;;3.80;99.90;;;;;;4961433;29;20153;-79
2020/12/26 04:34:33;;;;;;;29.10;19.30;;;3.80;99.90;;;;;;4963355;29;20062;-80
2020/12/26 04:36:59;;;;;;;33.53;20.50;;;3.80;99.90;;;;;;4961243;28;20535;-80
2020/12/26 04:39:26;;;;;;;35.40;22.45;;;3.80;99.90;;;;;;4962533;29;20090;-80
2020/12/26 04:41:53;;;;;;;36.70;23.52;;;3.70;99.90;;;;;;4960418;29;20117;-80
2020/12/26 04:44:20;;;;;;;32.13;23.83;;;3.80;99.90;;;;;;4961794;29;20051;-80
2020/12/26 04:46:48;;;;;;;42.80;25.52;;;3.80;99.90;;;;;;4961159;29;20079;-80
2020/12/26 04:49:18;;;;;;;36.75;25.98;;;3.80;99.90;;;;;;4961692;29;20082;-80
2020/12/26 04:51:47;;;;;;;35.67;22.63;;;3.70;99.90;;;;;;4960990;29;20059;-80
2020/12/26 04:54:23;;;;;;;37.17;22.98;;;3.80;99.90;;;;;;4961205;29;20134;-80
2020/12/26 04:56:53;;;;;;;29.50;22.02;;;3.80;99.90;;;;;;4961021;28;20051;-80
2020/12/26 04:59:20;;;;;;;32.63;22.80;;;3.90;99.90;;;;;;4969484;28;20046;-80
2020/12/26 05:01:48;;;;;;;33.28;23.80;;;3.80;99.90;;;;;;4980979;28;20078;-80
2020/12/26 05:04:15;;;;;;;32.85;23.05;;;3.80;99.90;;;;;;4982024;28;20051;-80
2020/12/26 05:06:49;;;;;;;35.78;24.67;;;3.80;99.90;;;;;;4982512;28;20082;-81
2020/12/26 05:09:16;;;;;;;39.55;25.80;;;3.80;99.90;;;;;;4981643;28;20478;-80
2020/12/26 05:11:54;;;;;;;39.65;26.02;;;3.80;99.90;;;;;;4981615;28;20053;-80
2020/12/26 05:14:20;;;;;;;45.13;27.67;;;3.80;99.90;;;;;;4981763;28;20057;-80
2020/12/26 05:16:47;;;;;;;47.15;28.48;;;3.80;99.90;;;;;;4979409;28;20129;-79
2020/12/26 05:19:13;;;;;;;48.25;30.60;;;3.90;99.90;;;;;;4978848;28;20455;-79
2020/12/26 05:21:40;;;;;;;43.75;27.98;;;3.80;99.90;;;;;;4978437;28;20050;-79
2020/12/26 05:24:08;;;;;;;49.03;29.17;;;3.80;99.90;;;;;;4978733;28;20118;-79
2020/12/26 05:26:42;;;;;;;44.92;28.85;;;3.90;99.90;;;;;;4979079;28;20078;-79
2020/12/26 05:29:10;;;;;;;51.88;30.42;;;3.90;99.90;;;;;;4978156;28;20057;-77
2020/12/26 05:31:45;;;;;;;57.97;29.92;;;3.90;99.90;;;;;;4977180;28;20538;-78
2020/12/26 05:34:12;;;;;;;43.35;28.27;;;3.90;99.90;;;;;;4976655;28;20086;-79
2020/12/26 05:36:38;;;;;;;46.78;29.40;;;4.00;99.90;;;;;;4976763;28;20141;-79
2020/12/26 05:39:05;;;;;;;46.38;30.02;;;4.10;99.90;;;;;;4977316;28;20106;-79
2020/12/26 05:41:32;;;;;;;50.83;29.98;;;4.00;99.90;;;;;;4979561;28;20074;-79
2020/12/26 05:43:59;;;;;;;49.45;30.70;;;4.00;99.90;;;;;;4978424;28;20125;-79
2020/12/26 05:46:33;;;;;;;52.40;29.48;;;4.00;99.90;;;;;;4979824;28;20085;-79
2020/12/26 05:49:24;;;;;;;44.55;29.30;;;3.90;99.90;;;;;;4970654;28;20055;-80
2020/12/26 05:51:56;;;;;;;49.90;30.48;;;4.00;99.90;;;;;;4961086;29;20275;-80
2020/12/26 05:54:24;;;;;;;48.17;30.88;;;3.90;99.90;;;;;;4962239;28;20106;-80
2020/12/26 05:57:15;;;;;;;46.90;30.20;;;3.90;99.90;;;;;;4958830;28;20051;-80
2020/12/26 05:59:50;;;;;;;49.75;31.52;;;4.00;99.90;;;;;;4960196;28;20078;-80
2020/12/26 06:02:26;;;;;;;53.45;31.88;;;3.90;99.90;;;;;;4960562;28;20066;-79
2020/12/26 06:04:59;;;;;;;58.30;32.42;;;4.00;99.90;;;;;;4964492;28;20058;-80
2020/12/26 06:07:35;;;;;;;53.53;32.58;;;3.90;99.90;;;;;;4968650;28;20474;-81
2020/12/26 06:10:06;;;;;;;48.05;30.65;;;3.90;99.90;;;;;;4967103;28;20545;-81
2020/12/26 06:12:38;;;;;;;45.10;28.90;;;4.10;99.90;;;;;;4956444;28;20055;-80
2020/12/26 06:15:10;;;;;;;47.38;29.40;;;4.10;99.90;;;;;;4956948;29;20059;-80
2020/12/26 06:37:37;;;;;;;39.53;21.20;;;4.00;99.90;;;;;;4965774;23;20049;-79
2020/12/26 06:40:51;;;;;;;35.67;22.38;;;4.10;99.90;;;;;;5017523;28;20145;-79
2020/12/26 06:47:16;;;;;;;40.22;23.17;;;4.00;99.90;;;;;;5028031;23;20117;-79
2020/12/26 06:50:19;;;;;;;37.92;21.25;;;3.90;99.90;;;;;;5008633;28;20177;-79
2020/12/26 06:53:08;;;;;;;37.25;21.77;;;3.80;99.90;;;;;;5014450;28;20054;-79
2020/12/26 06:58:34;;;;;;;35.70;22.20;;;3.70;99.90;;;;;;5013018;28;20050;-78
2020/12/26 07:01:22;;;;;;;36.03;22.58;;;3.70;99.90;;;;;;4994458;28;20050;-77
2020/12/26 07:04:27;;;;;;;37.83;22.25;;;3.70;99.90;;;;;;4994420;28;20043;-79
2020/12/26 07:07:30;;;;;;;37.97;23.50;;;3.70;99.90;;;;;;4998456;28;20081;-78
2020/12/26 07:24:15;;;;;;;38.75;19.42;;;3.40;99.90;;;;;;4869055;29;20048;-80
2020/12/26 07:26:41;;;;;;;33.42;19.15;;;3.40;99.90;;;;;;5013863;28;20057;-80
2020/12/26 07:29:10;;;;;;;30.77;19.23;;;3.40;99.90;;;;;;5003699;28;20163;-79
2020/12/26 07:31:47;;;;;;;34.03;19.85;;;3.30;99.90;;;;;;5003362;28;20088;-80
2020/12/26 07:34:34;;;;;;;36.40;19.88;;;3.30;99.90;;;;;;5001769;28;20050;-79
2020/12/26 07:37:01;;;;;;;34.95;19.45;;;3.30;99.90;;;;;;5005076;28;20539;-79
2020/12/26 07:39:28;;;;;;;36.30;19.38;;;3.30;99.90;;;;;;5005768;28;20104;-80
2020/12/26 07:41:56;;;;;;;31.85;19.13;;;3.20;99.90;;;;;;5005804;28;20077;-79
2020/12/26 07:44:27;;;;;;;33.10;19.55;;;3.20;99.90;;;;;;5005941;28;20121;-79
2020/12/26 07:46:55;;;;;;;30.60;19.60;;;3.20;99.90;;;;;;5007200;28;20061;-80
2020/12/26 07:49:22;;;;;;;33.55;19.77;;;3.20;99.90;;;;;;5004711;28;20081;-80
2020/12/26 07:52:03;;;;;;;30.73;19.88;;;3.20;99.90;;;;;;5005865;28;20136;-78
2020/12/26 07:54:30;;;;;;;28.73;18.42;;;3.20;99.90;;;;;;5009274;28;20074;-79
2020/12/26 07:56:56;;;;;;;31.33;19.67;;;3.10;99.90;;;;;;5009082;28;20077;-79
2020/12/26 07:59:23;;;;;;;36.60;20.88;;;3.20;99.90;;;;;;5002546;28;20136;-78
2020/12/26 08:01:51;;;;;;;26.70;18.55;;;3.20;99.90;;;;;;5001522;28;20081;-80
2020/12/26 08:04:17;;;;;;;31.10;17.50;;;3.20;99.90;;;;;;5002814;28;20096;-79
2020/12/26 08:06:46;;;;;;;30.20;17.70;;;3.20;99.90;;;;;;5000490;28;20081;-78
2020/12/26 08:09:13;;;;;;;30.80;18.30;;;3.10;99.90;;;;;;4999803;28;20082;-79
2020/12/26 08:11:40;;;;;;;28.75;18.20;;;3.10;99.90;;;;;;5000873;28;20050;-80
2020/12/26 08:14:07;;;;;;;27.92;17.38;;;3.20;99.90;;;;;;5000848;28;20050;-79
2020/12/26 08:16:34;;;;;;;28.63;17.65;;;3.20;99.90;;;;;;5000529;28;20133;-78
2020/12/26 08:19:02;;;;;;;30.75;17.63;;;3.30;99.90;;;;;;4999977;28;20054;-78
2020/12/26 08:21:29;;;;;;;29.90;16.85;;;3.20;99.90;;;;;;5000462;28;20093;-78
2020/12/26 08:23:56;;;;;;;26.10;17.42;;;3.30;99.90;;;;;;5000066;28;20058;-78
2020/12/26 08:26:23;;;;;;;24.33;15.98;;;3.30;99.90;;;;;;5000011;28;20468;-77
2020/12/26 08:28:52;;;;;;;25.73;15.85;;;3.30;99.90;;;;;;4999788;28;20129;-79
2020/12/26 08:31:21;;;;;;;24.83;15.85;;;3.30;99.90;;;;;;5000206;28;20090;-79
2020/12/26 08:33:52;;;;;;;28.00;16.05;;;3.40;99.90;;;;;;4998643;28;20050;-79
2020/12/26 08:36:27;;;;;;;20.80;14.52;;;3.40;99.90;;;;;;4999412;28;20073;-80
2020/12/26 08:38:56;;;;;;;27.25;16.02;;;3.40;99.90;;;;;;5012481;28;20057;-82
2020/12/26 08:41:24;;;;;;;22.27;15.13;;;3.40;99.90;;;;;;5012373;28;20093;-81
2020/12/26 08:43:52;;;;;;;27.23;16.08;;;3.50;99.90;;;;;;5016044;28;20054;-80
2020/12/26 08:46:22;;;;;;;22.05;14.23;;;3.60;99.90;;;;;;5015977;28;20046;-83
2020/12/26 08:48:49;;;;;;;21.83;14.52;;;3.60;99.90;;;;;;5016570;28;20038;-82
2020/12/26 08:51:21;;;;;;;20.92;13.55;;;3.70;99.90;;;;;;4999949;28;20545;-81
2020/12/26 08:53:48;;;;;;;25.05;14.02;;;3.70;99.90;;;;;;4990031;28;20054;-81
2020/12/26 08:56:15;;;;;;;18.30;12.70;;;3.70;99.90;;;;;;4988832;28;20051;-81
2020/12/26 08:58:48;;;;;;;22.13;13.63;;;3.80;99.90;;;;;;4989755;28;20065;-81
2020/12/26 09:01:16;;;;;;;21.75;12.48;;;3.80;99.90;;;;;;4986503;28;20106;-79
2020/12/26 09:03:49;;;;;;;20.20;12.30;;;3.90;99.90;;;;;;4996290;28;20082;-79
2020/12/26 09:06:15;;;;;;;17.77;11.50;;;3.90;99.90;;;;;;5005588;28;20134;-80
2020/12/26 09:08:42;;;;;;;18.75;12.10;;;3.90;99.90;;;;;;5003886;28;20094;-78
2020/12/26 09:11:10;;;;;;;19.70;11.05;;;4.00;99.90;;;;;;5004805;28;20093;-79
2020/12/26 09:13:38;;;;;;;15.38;11.02;;;4.10;99.90;;;;;;5005849;28;20389;-78
2020/12/26 09:16:08;;;;;;;16.98;10.57;;;4.10;99.90;;;;;;5005671;28;20052;-79
2020/12/26 09:18:40;;;;;;;17.52;10.48;;;4.20;99.90;;;;;;5004555;28;20081;-78
2020/12/26 09:21:08;;;;;;;17.67;10.02;;;4.20;99.90;;;;;;5004352;28;20078;-79
2020/12/26 09:23:36;;;;;;;18.52;9.18;;;4.20;99.90;;;;;;5006730;28;20078;-81
2020/12/26 09:26:13;;;;;;;19.30;10.13;;;4.20;99.90;;;;;;5011126;28;20053;-80
2020/12/26 09:28:47;;;;;;;14.23;9.43;;;4.20;99.90;;;;;;5011431;28;20050;-80
2020/12/26 09:31:15;;;;;;;15.63;10.93;;;4.30;99.90;;;;;;5011628;28;20391;-80
2020/12/26 09:33:42;;;;;;;13.95;9.02;;;4.30;99.90;;;;;;5009964;28;20085;-80
2020/12/26 09:36:11;;;;;;;16.48;8.70;;;4.40;99.90;;;;;;5006696;28;20046;-81
2020/12/26 09:38:38;;;;;;;17.13;9.82;;;4.50;99.90;;;;;;5007514;28;20046;-79
2020/12/26 09:41:12;;;;;;;16.88;9.68;;;4.50;99.90;;;;;;5007275;28;20415;-80
2020/12/26 09:43:38;;;;;;;13.43;8.75;;;4.70;99.90;;;;;;5004000;28;20074;-80
2020/12/26 09:46:05;;;;;;;13.50;9.10;;;4.80;99.90;;;;;;5008477;28;20050;-80
2020/12/26 09:48:32;;;;;;;14.50;8.02;;;5.00;99.90;;;;;;5008268;28;20054;-81
2020/12/26 09:50:59;;;;;;;14.65;7.90;;;5.00;99.90;;;;;;5009702;28;20054;-79
2020/12/26 09:53:25;;;;;;;14.63;8.27;;;5.00;99.90;;;;;;5009057;28;20058;-81
2020/12/26 09:55:52;;;;;;;16.80;8.25;;;5.00;99.90;;;;;;5010076;28;20050;-80
2020/12/26 09:58:19;;;;;;;16.38;8.65;;;5.00;99.90;;;;;;5006268;28;20093;-79
2020/12/26 10:00:45;;;;;;;14.23;8.30;;;4.90;99.90;;;;;;5006367;28;20535;-80
2020/12/26 10:03:12;;;;;;;13.30;8.20;;;4.90;99.90;;;;;;5006042;28;20081;-79
2020/12/26 10:05:38;;;;;;;13.18;8.18;;;5.00;99.90;;;;;;5003645;28;20051;-80
2020/12/26 10:08:05;;;;;;;13.57;7.82;;;5.00;99.90;;;;;;5002620;28;20054;-79
2020/12/26 10:10:32;;;;;;;11.73;7.35;;;5.10;99.90;;;;;;4999810;28;20054;-78
2020/12/26 10:12:58;;;;;;;12.40;8.38;;;5.10;99.90;;;;;;4999846;28;20490;-78
2020/12/26 10:15:24;;;;;;;13.40;7.47;;;5.10;99.90;;;;;;4999615;28;20082;-79
2020/12/26 10:17:51;;;;;;;14.13;8.10;;;5.10;99.90;;;;;;4999021;28;20141;-82
2020/12/26 10:20:17;;;;;;;10.45;6.65;;;5.10;99.90;;;;;;5003826;28;20058;-79
2020/12/26 10:22:43;;;;;;;12.18;7.15;;;5.10;99.90;;;;;;5002794;28;20081;-80
2020/12/26 10:25:11;;;;;;;13.50;6.68;;;5.20;99.90;;;;;;5002929;28;20082;-83
2020/12/26 10:27:37;;;;;;;10.45;6.50;;;5.20;99.90;;;;;;5002564;28;20054;-81
2020/12/26 10:30:04;;;;;;;14.43;7.30;;;5.20;99.90;;;;;;5000452;28;20089;-82
2020/12/26 10:32:30;;;;;;;10.52;7.00;;;5.20;99.90;;;;;;5000417;28;20086;-79
2020/12/26 10:34:56;;;;;;;11.38;6.63;;;5.20;99.90;;;;;;4998703;28;20129;-78
2020/12/26 10:37:23;;;;;;;12.45;6.47;;;5.20;99.90;;;;;;4998909;28;20106;-78
2020/12/26 10:39:49;;;;;;;10.20;4.95;;;5.30;99.90;;;;;;4999616;28;20065;-78
2020/12/26 10:42:16;;;;;;;11.18;7.10;;;5.30;99.90;;;;;;4997685;28;20117;-80
2020/12/26 10:44:43;;;;;;;12.48;6.80;;;5.30;99.90;;;;;;4996822;28;20129;-78
2020/12/26 10:47:09;;;;;;;14.00;5.80;;;5.40;99.90;;;;;;4998070;28;20082;-78
2020/12/26 10:49:36;;;;;;;11.07;6.50;;;5.40;99.90;;;;;;4998941;28;20112;-78
2020/12/26 10:52:02;;;;;;;11.93;7.05;;;5.50;99.90;;;;;;4998601;28;20104;-79
2020/12/26 10:54:29;;;;;;;11.95;6.68;;;5.50;99.90;;;;;;5001807;28;20050;-80
2020/12/26 10:56:55;;;;;;;9.20;5.75;;;5.60;99.90;;;;;;5002917;28;20062;-80
2020/12/26 10:59:24;;;;;;;14.77;6.28;;;5.70;99.90;;;;;;4998491;28;20050;-80
2020/12/26 11:01:50;;;;;;;12.18;6.45;;;5.70;99.90;;;;;;4997362;28;20054;-79
2020/12/26 11:04:17;;;;;;;9.52;5.93;;;5.70;99.90;;;;;;4998871;28;20084;-79
2020/12/26 11:06:48;;;;;;;9.55;6.10;;;5.60;99.90;;;;;;4998238;28;20138;-79
2020/12/26 11:09:15;;;;;;;12.93;6.93;;;5.60;99.90;;;;;;4996877;28;20467;-79
2020/12/26 11:11:46;;;;;;;21.05;11.27;;;5.60;99.90;;;;;;4996557;28;20137;-77
2020/12/26 11:14:12;;;;;;;14.07;6.20;;;5.60;99.90;;;;;;4998302;28;20414;-79
2020/12/26 11:16:39;;;;;;;13.02;7.60;;;5.60;99.90;;;;;;4991472;28;20046;-78
2020/12/26 11:19:06;;;;;;;12.48;5.72;;;5.50;99.90;;;;;;4988604;28;20122;-80
2020/12/26 11:21:32;;;;;;;9.70;5.68;;;5.50;99.90;;;;;;4995829;28;20050;-81
2020/12/26 11:23:59;;;;;;;9.27;5.90;;;5.50;99.90;;;;;;4992530;28;20077;-78
2020/12/26 11:26:25;;;;;;;13.25;5.68;;;5.60;99.90;;;;;;4990133;28;20049;-78
2020/12/26 11:28:51;;;;;;;9.65;5.22;;;5.70;99.90;;;;;;4983238;28;20094;-77
2020/12/26 11:31:21;;;;;;;11.93;5.63;;;5.70;99.90;;;;;;4985286;28;20545;-79
2020/12/26 11:33:49;;;;;;;10.68;5.85;;;5.70;99.90;;;;;;4987116;28;20054;-78
2020/12/26 11:36:21;;;;;;;8.07;5.25;;;5.80;99.90;;;;;;4986547;28;20129;-79
2020/12/26 11:38:48;;;;;;;9.18;5.00;;;5.80;99.90;;;;;;4986245;28;20130;-78
2020/12/26 11:41:16;;;;;;;11.50;5.45;;;5.90;99.90;;;;;;4996349;28;20046;-80
2020/12/26 11:43:42;;;;;;;8.40;5.00;;;5.90;99.90;;;;;;4999405;28;20056;-81
2020/12/26 11:46:09;;;;;;;8.55;4.97;;;6.00;99.90;;;;;;4987991;28;20074;-79
2020/12/26 11:48:36;;;;;;;9.23;4.85;;;6.10;99.90;;;;;;4986347;28;20245;-78
2020/12/26 11:51:03;;;;;;;7.00;4.45;;;6.10;99.90;;;;;;4986469;28;20154;-76
2020/12/26 11:53:33;;;;;;;10.02;4.30;;;6.20;99.90;;;;;;4983890;28;20061;-76
2020/12/26 11:55:59;;;;;;;7.35;4.53;;;6.30;99.90;;;;;;4986774;28;20121;-78
2020/12/26 11:58:26;;;;;;;9.60;4.72;;;6.30;99.90;;;;;;5000341;28;20090;-79
2020/12/26 12:00:53;;;;;;;8.70;4.60;;;6.30;99.90;;;;;;5000475;28;20050;-79
2020/12/26 12:03:19;;;;;;;6.75;4.20;;;6.30;99.90;;;;;;5001937;28;20112;-81
2020/12/26 12:05:46;;;;;;;9.00;4.20;;;6.30;99.90;;;;;;5008190;28;20084;-80
2020/12/26 12:08:14;;;;;;;9.30;4.85;;;6.30;99.90;;;;;;5014116;28;20054;-80
2020/12/26 12:10:41;;;;;;;8.77;4.32;;;6.30;99.90;;;;;;5016894;28;20085;-80
2020/12/26 12:13:08;;;;;;;6.55;4.07;;;6.30;99.90;;;;;;5012563;28;20525;-80
2020/12/26 12:15:35;;;;;;;7.40;3.90;;;6.40;99.90;;;;;;5009029;28;20104;-78
2020/12/26 12:18:01;;;;;;;8.60;3.72;;;6.40;99.90;;;;;;5004433;28;20101;-79
2020/12/26 12:20:28;;;;;;;5.63;4.00;;;6.50;99.90;;;;;;5005810;28;20097;-79
2020/12/26 12:22:54;;;;;;;6.72;3.75;;;6.60;99.90;;;;;;5001408;28;20084;-78
2020/12/26 12:25:22;;;;;;;7.70;4.13;;;6.60;99.90;;;;;;4992175;28;20154;-80
2020/12/26 12:27:49;;;;;;;6.88;3.72;;;6.70;99.90;;;;;;4993401;28;20058;-81
2020/12/26 12:30:16;;;;;;;5.68;3.47;;;6.80;99.90;;;;;;4992222;28;20050;-79
2020/12/26 12:32:42;;;;;;;6.32;3.67;;;7.00;99.90;;;;;;4990188;28;20138;-79
2020/12/26 12:35:10;;;;;;;5.60;3.50;;;7.00;99.90;;;;;;4986980;28;20126;-79
2020/12/26 12:37:36;;;;;;;5.93;3.33;;;7.00;99.90;;;;;;4986928;28;20047;-84
2020/12/26 12:40:03;;;;;;;4.35;3.20;;;7.00;99.90;;;;;;4995383;28;20083;-84
2020/12/26 12:42:31;;;;;;;5.00;3.50;;;7.00;99.90;;;;;;4986947;28;20511;-81
2020/12/26 12:44:58;;;;;;;5.72;3.28;;;6.90;99.90;;;;;;4988848;28;20065;-81
2020/12/26 12:47:24;;;;;;;4.85;3.50;;;6.80;99.90;;;;;;4992729;28;20086;-80
2020/12/26 12:49:51;;;;;;;9.40;4.72;;;6.80;99.90;;;;;;4992775;28;20163;-77
2020/12/26 12:52:18;;;;;;;7.07;3.28;;;6.90;99.90;;;;;;4996527;28;20114;-80
2020/12/26 12:54:44;;;;;;;4.53;3.53;;;6.90;99.90;;;;;;4986207;28;20130;-82
2020/12/26 12:57:11;;;;;;;12.60;5.78;;;7.00;99.90;;;;;;4983337;28;20086;-80
2020/12/26 12:59:39;;;;;;;7.40;4.30;;;7.00;99.90;;;;;;4984576;28;20078;-78
2020/12/26 13:02:09;;;;;;;8.45;3.25;;;7.10;99.90;;;;;;4984611;28;20101;-79
2020/12/26 13:04:35;;;;;;;4.47;2.92;;;7.00;99.90;;;;;;4991920;28;20046;-79
2020/12/26 13:07:02;;;;;;;4.97;2.55;;;7.00;99.90;;;;;;4996874;28;20482;-79
2020/12/26 13:09:28;;;;;;;5.63;3.83;;;7.00;99.90;;;;;;4986820;28;20051;-80
2020/12/26 13:11:56;;;;;;;7.80;3.65;;;7.10;99.90;;;;;;4986175;28;20085;-80
2020/12/26 13:14:22;;;;;;;7.82;4.93;;;7.00;99.90;;;;;;4990636;28;20078;-80
2020/12/26 13:16:50;;;;;;;7.25;4.00;;;6.90;99.90;;;;;;4991939;28;20050;-80
2020/12/26 13:19:16;;;;;;;4.32;2.95;;;6.80;99.90;;;;;;4994555;28;20050;-80
2020/12/26 13:21:43;;;;;;;7.30;3.70;;;6.80;99.90;;;;;;5010319;23;20078;-79
2020/12/26 13:24:09;;;;;;;5.22;3.15;;;6.80;99.90;;;;;;5000897;28;20046;-79
2020/12/26 13:26:37;;;;;;;9.52;3.72;;;6.90;99.90;;;;;;5001437;28;20053;-79
2020/12/26 13:29:03;;;;;;;5.20;3.30;;;6.80;99.90;;;;;;4986554;28;20161;-79
2020/12/26 13:31:32;;;;;;;6.80;5.55;;;6.70;99.90;;;;;;4991238;28;20051;-79